Time;durP1;ratioP1;P1;durP2;ratioP2;P2;SDS_P1;SDS_P2;PMS_P1;PMS_P2;Temp;Humidity;BMP_temperature;BMP_pressure;BME280_temperature;BME280_humidity;BME280_pressure;Samples;Min_cycle;Max_cycle;Signal;HPM_P1;HPM_P2
2022/04/11 00:02:19;;;;;;;12.05;9.45;;;;;;;8.19;100.00;100719.00;5057581;28;20025;-77
2022/04/11 00:05:05;;;;;;;12.63;9.75;;;;;;;8.35;100.00;100715.41;5056172;28;20033;-77
2022/04/11 00:07:51;;;;;;;11.25;8.82;;;;;;;8.13;100.00;100719.94;5056751;28;20451;-77
2022/04/11 00:10:37;;;;;;;12.80;8.68;;;;;;;8.00;100.00;100720.03;5054944;28;20029;-76
2022/04/11 00:13:23;;;;;;;10.90;8.85;;;;;;;8.21;100.00;100736.44;5056007;28;20108;-77
2022/04/11 00:16:08;;;;;;;11.75;8.63;;;;;;;8.05;100.00;100734.78;5056935;28;20098;-76
2022/04/11 00:18:54;;;;;;;10.63;8.80;;;;;;;8.17;100.00;100731.19;5057953;28;20056;-77
2022/04/11 00:21:40;;;;;;;12.90;9.48;;;;;;;8.34;100.00;100742.41;5055809;28;20039;-77
2022/04/11 00:24:26;;;;;;;11.18;9.38;;;;;;;8.18;100.00;100752.06;5056922;28;20121;-76
2022/04/11 00:27:11;;;;;;;12.70;10.00;;;;;;;8.12;100.00;100754.69;5055843;28;20025;-77
2022/04/11 00:29:57;;;;;;;14.38;9.57;;;;;;;7.99;100.00;100757.41;5057943;28;20029;-75
2022/04/11 00:32:46;;;;;;;11.80;9.35;;;;;;;8.13;100.00;100756.47;5056686;28;20017;-77
2022/04/11 00:35:32;;;;;;;11.10;9.27;;;;;;;8.30;100.00;100758.97;5055723;28;20017;-77
2022/04/11 00:38:17;;;;;;;12.00;8.90;;;;;;;7.84;100.00;100768.78;5056165;28;20025;-76
2022/04/11 00:41:03;;;;;;;12.93;9.27;;;;;;;7.70;100.00;100785.41;5056264;28;20025;-77
2022/04/11 00:43:49;;;;;;;10.68;9.00;;;;;;;7.96;100.00;100793.97;5057298;28;20021;-77
2022/04/11 00:46:35;;;;;;;13.52;10.35;;;;;;;7.90;100.00;100802.69;5056006;28;20130;-76
2022/04/11 00:49:21;;;;;;;12.73;10.20;;;;;;;7.87;100.00;100809.63;5056897;28;20295;-77
2022/04/11 00:52:07;;;;;;;12.05;9.55;;;;;;;8.04;100.00;100813.06;5056717;28;20098;-76
2022/04/11 00:54:52;;;;;;;12.48;9.75;;;;;;;8.04;100.00;100816.50;5056219;28;20028;-77
2022/04/11 00:57:39;;;;;;;13.23;9.57;;;;;;;8.11;100.00;100820.81;5057403;28;20025;-76
2022/04/11 01:00:25;;;;;;;13.90;10.05;;;;;;;8.15;100.00;100826.88;5065814;28;20032;-77
2022/04/11 01:03:11;;;;;;;12.90;9.98;;;;;;;7.74;100.00;100834.94;5054980;28;20342;-78
2022/04/11 01:05:56;;;;;;;11.23;9.00;;;;;;;7.55;100.00;100838.47;5055453;28;20040;-78
2022/04/11 01:08:42;;;;;;;12.38;9.20;;;;;;;7.64;100.00;100834.97;5054382;28;20111;-76
2022/04/11 01:11:28;;;;;;;11.45;9.35;;;;;;;7.90;100.00;100836.59;5055093;28;20021;-77
2022/04/11 01:14:14;;;;;;;12.35;9.27;;;;;;;7.89;100.00;100834.88;5055963;28;20033;-78
2022/04/11 01:16:59;;;;;;;11.55;8.82;;;;;;;7.95;100.00;100839.16;5055257;28;20067;-78
2022/04/11 01:19:45;;;;;;;10.07;8.23;;;;;;;7.76;100.00;100845.38;5055875;28;20445;-77
2022/04/11 01:22:31;;;;;;;9.73;8.20;;;;;;;8.08;100.00;100856.50;5055467;28;20108;-78
2022/04/11 01:25:18;;;;;;;9.73;8.10;;;;;;;7.91;100.00;100843.53;5055771;28;20457;-77
2022/04/11 01:28:04;;;;;;;11.32;8.52;;;;;;;8.23;100.00;100853.81;5055740;28;20434;-77
2022/04/11 01:30:53;;;;;;;9.20;7.68;;;;;;;8.25;100.00;100855.59;5055847;28;20033;-78
2022/04/11 01:33:39;;;;;;;8.82;7.10;;;;;;;7.83;100.00;100858.34;5054936;28;20109;-78
2022/04/11 01:36:25;;;;;;;9.30;7.53;;;;;;;8.00;100.00;100861.75;5054982;28;20016;-78
2022/04/11 01:39:11;;;;;;;9.77;7.00;;;;;;;8.18;100.00;100864.28;5055043;28;20116;-78
2022/04/11 01:41:56;;;;;;;8.75;6.97;;;;;;;8.28;100.00;100863.38;5054479;28;20064;-78
2022/04/11 01:44:42;;;;;;;8.80;7.15;;;;;;;8.10;100.00;100866.06;5055994;28;20039;-78
2022/04/11 01:47:28;;;;;;;9.52;6.82;;;;;;;8.04;100.00;100868.69;5054298;28;20044;-78
2022/04/11 01:50:14;;;;;;;9.85;6.97;;;;;;;8.04;100.00;100875.66;5055757;28;20025;-77
2022/04/11 01:53:17;;;;;;;7.57;6.50;;;;;;;8.14;100.00;100877.34;5055434;28;20111;-78
2022/04/11 01:56:03;;;;;;;8.20;6.97;;;;;;;8.04;100.00;100875.66;5053887;28;20017;-78
2022/04/11 01:58:49;;;;;;;9.57;7.00;;;;;;;8.44;100.00;100877.22;5054182;28;20033;-78
2022/04/11 02:01:35;;;;;;;7.68;6.25;;;;;;;8.05;100.00;100891.31;5053860;28;20025;-78
2022/04/11 02:04:20;;;;;;;7.82;6.80;;;;;;;7.91;100.00;100893.09;5053410;28;20355;-78
2022/04/11 02:07:06;;;;;;;7.88;6.57;;;;;;;7.80;100.00;100894.88;5054473;28;20348;-78
2022/04/11 02:09:52;;;;;;;7.15;5.97;;;;;;;7.70;100.00;100900.13;5054912;28;20021;-79
2022/04/11 02:12:39;;;;;;;7.03;5.80;;;;;;;7.68;100.00;100904.50;5054722;28;20038;-78
2022/04/11 02:15:25;;;;;;;7.32;5.75;;;;;;;7.69;100.00;100909.72;5053564;28;20035;-78
2022/04/11 02:18:11;;;;;;;6.93;5.63;;;;;;;7.70;100.00;100911.44;5054094;28;20035;-77
2022/04/11 02:20:57;;;;;;;6.28;5.25;;;;;;;7.69;100.00;100907.09;5054124;28;20028;-77
2022/04/11 02:23:43;;;;;;;7.45;5.57;;;;;;;7.61;100.00;100907.97;5052924;28;20091;-78
2022/04/11 02:26:28;;;;;;;6.97;5.45;;;;;;;7.56;100.00;100912.34;5053074;28;20102;-78
2022/04/11 02:29:14;;;;;;;6.43;5.40;;;;;;;7.35;100.00;100921.06;5054800;28;20025;-77
2022/04/11 02:32:00;;;;;;;6.43;5.32;;;;;;;7.71;100.00;100918.38;5055469;28;20040;-77
2022/04/11 02:34:46;;;;;;;7.00;5.47;;;;;;;8.15;100.00;100926.03;5053506;28;20063;-77
2022/04/11 02:37:33;;;;;;;6.53;5.05;;;;;;;7.74;100.00;100923.59;5054681;28;20041;-78
2022/04/11 02:40:19;;;;;;;5.55;4.72;;;;;;;7.58;100.00;100926.22;5052003;28;20477;-78
2022/04/11 02:43:05;;;;;;;5.75;4.70;;;;;;;7.57;100.00;100922.78;5052835;28;20468;-78
2022/04/11 02:45:51;;;;;;;4.70;3.70;;;;;;;7.41;100.00;100922.78;5051998;28;20095;-79
2022/04/11 02:48:37;;;;;;;5.35;4.50;;;;;;;7.39;100.00;100928.00;5054933;28;20052;-78
2022/04/11 02:51:22;;;;;;;4.63;4.05;;;;;;;7.34;100.00;100931.47;5053099;28;20025;-78
2022/04/11 02:54:08;;;;;;;5.45;3.85;;;;;;;7.06;100.00;100924.53;5054443;28;20017;-78
2022/04/11 02:56:54;;;;;;;4.80;4.20;;;;;;;7.36;100.00;100930.59;5052649;28;20036;-78
2022/04/11 02:59:39;;;;;;;5.22;4.15;;;;;;;7.50;100.00;100930.59;5053640;28;20028;-78
2022/04/11 03:02:25;;;;;;;5.55;4.18;;;;;;;7.20;100.00;100939.31;5054149;28;20067;-78
2022/04/11 03:05:11;;;;;;;5.10;4.10;;;;;;;7.16;100.00;100931.50;5053682;28;20048;-78
2022/04/11 03:07:57;;;;;;;4.80;3.78;;;;;;;7.03;100.00;100945.41;5054244;28;20434;-78
2022/04/11 03:10:42;;;;;;;5.07;3.67;;;;;;;6.95;100.00;100940.19;5054277;28;20081;-79
2022/04/11 03:13:28;;;;;;;4.57;3.72;;;;;;;7.26;100.00;100934.09;5053925;28;20021;-78
2022/04/11 03:16:14;;;;;;;4.80;4.10;;;;;;;7.05;100.00;100941.94;5054010;28;20028;-77
2022/04/11 03:19:00;;;;;;;4.82;4.20;;;;;;;7.36;100.00;100955.81;5049346;28;20028;-78
2022/04/11 03:21:45;;;;;;;4.75;3.70;;;;;;;6.96;100.00;100959.28;5053345;28;20041;-78
2022/04/11 03:24:31;;;;;;;3.92;3.47;;;;;;;6.83;100.00;100958.41;5053428;28;20455;-78
2022/04/11 03:27:17;;;;;;;4.72;3.70;;;;;;;6.79;100.00;100971.44;5053107;28;20090;-79
2022/04/11 03:30:03;;;;;;;4.68;3.88;;;;;;;6.82;100.00;100969.69;5052914;28;20116;-79
2022/04/11 03:32:48;;;;;;;5.22;3.90;;;;;;;6.93;100.00;100967.97;5056912;28;20028;-78
2022/04/11 03:35:34;;;;;;;4.13;3.53;;;;;;;6.66;100.00;100977.44;5056211;28;20024;-78
2022/04/11 03:38:20;;;;;;;4.57;3.97;;;;;;;6.60;100.00;100983.53;5058078;28;20025;-78
2022/04/11 03:41:06;;;;;;;4.70;3.80;;;;;;;6.85;100.00;100977.50;5056909;28;20043;-78
2022/04/11 03:43:52;;;;;;;5.13;4.18;;;;;;;6.95;100.00;100979.25;5057008;28;20029;-79
2022/04/11 03:46:38;;;;;;;5.63;4.57;;;;;;;6.98;100.00;100994.00;5056582;28;20470;-78
2022/04/11 03:49:24;;;;;;;5.00;4.10;;;;;;;6.66;100.00;100993.06;5057529;28;20059;-77
2022/04/11 03:52:10;;;;;;;4.43;3.55;;;;;;;6.48;100.00;101001.72;5057797;28;20025;-77
2022/04/11 03:54:56;;;;;;;5.22;3.60;;;;;;;6.63;100.00;101006.94;5056424;28;20041;-78
2022/04/11 03:57:41;;;;;;;4.13;3.40;;;;;;;6.71;100.00;101012.19;5056507;28;20039;-79
2022/04/11 04:00:27;;;;;;;4.10;3.33;;;;;;;6.75;100.00;101016.56;5056955;28;20388;-77
2022/04/11 04:03:14;;;;;;;4.38;3.70;;;;;;;6.98;100.00;101020.06;5055640;28;20522;-79
2022/04/11 04:06:00;;;;;;;4.55;3.92;;;;;;;7.24;100.00;101024.44;5055821;28;20040;-78
2022/04/11 04:08:46;;;;;;;3.83;3.17;;;;;;;6.81;100.00;101027.84;5056690;28;20544;-78
2022/04/11 04:11:31;;;;;;;3.83;3.42;;;;;;;6.94;100.00;101024.41;5056770;28;20402;-78
2022/04/11 04:14:17;;;;;;;4.30;3.60;;;;;;;7.00;100.00;101026.16;5056995;28;20036;-78
2022/04/11 04:17:03;;;;;;;4.90;3.40;;;;;;;6.66;100.00;101027.78;5056690;28;20434;-77
2022/04/11 04:19:49;;;;;;;6.72;3.20;;;;;;;6.60;100.00;101026.91;5055285;28;20040;-78
2022/04/11 04:22:35;;;;;;;3.85;3.20;;;;;;;6.94;100.00;101037.41;5056038;28;20029;-78
2022/04/11 04:25:21;;;;;;;3.30;2.92;;;;;;;7.01;100.00;101030.47;5056465;28;20021;-78
2022/04/11 04:28:07;;;;;;;4.85;2.95;;;;;;;7.01;100.00;101033.97;5056182;28;20020;-79
2022/04/11 04:30:53;;;;;;;4.32;3.28;;;;;;;7.05;100.00;101035.72;5057271;28;20037;-77
2022/04/11 04:33:38;;;;;;;3.50;3.00;;;;;;;6.93;100.00;101040.91;5056283;28;20029;-79
2022/04/11 04:36:24;;;;;;;4.25;3.30;;;;;;;6.98;100.00;101048.69;5056283;28;20373;-78
2022/04/11 04:39:10;;;;;;;5.90;4.07;;;;;;;6.90;100.00;101058.22;5056973;28;20017;-78
2022/04/11 04:41:55;;;;;;;4.80;3.47;;;;;;;6.67;100.00;101050.34;5056996;28;20087;-77
2022/04/11 04:44:41;;;;;;;10.25;3.75;;;;;;;6.73;100.00;101059.91;5054005;28;20025;-78
2022/04/11 04:47:27;;;;;;;4.55;3.85;;;;;;;6.94;100.00;101059.97;5054995;28;20080;-77
2022/04/11 04:50:13;;;;;;;5.72;4.30;;;;;;;6.94;100.00;101066.06;5059223;28;20445;-78
2022/04/11 04:52:58;;;;;;;5.00;3.90;;;;;;;6.94;100.00;101068.69;5054730;28;20025;-80
2022/04/11 04:55:44;;;;;;;6.60;3.72;;;;;;;6.68;100.00;101072.06;5055497;28;20025;-79
2022/04/11 04:58:30;;;;;;;4.43;3.55;;;;;;;6.97;100.00;101080.84;5055741;28;20415;-79
2022/04/11 05:01:16;;;;;;;4.20;3.70;;;;;;;7.18;100.00;101083.47;5055733;28;20029;-79
2022/04/11 05:04:01;;;;;;;5.40;3.90;;;;;;;7.32;100.00;101097.41;5054907;28;20464;-78
2022/04/11 05:06:47;;;;;;;5.50;3.47;;;;;;;7.22;100.00;101093.94;5055105;28;20028;-78
2022/04/11 05:09:33;;;;;;;3.85;3.42;;;;;;;7.15;100.00;101092.16;5055105;28;20053;-78
2022/04/11 05:12:19;;;;;;;3.63;2.92;;;;;;;7.32;100.00;101092.22;5054757;28;20021;-79
2022/04/11 05:15:05;;;;;;;4.05;2.90;;;;;;;7.37;100.00;101103.50;5055975;28;20448;-79
2022/04/11 05:17:51;;;;;;;3.45;2.60;;;;;;;7.79;100.00;101101.78;5054633;28;20449;-78
2022/04/11 05:20:36;;;;;;;3.70;3.10;;;;;;;7.77;100.00;101094.84;5055090;28;20090;-78
2022/04/11 05:23:22;;;;;;;3.30;2.67;;;;;;;7.59;100.00;101100.06;5054154;28;20039;-78
2022/04/11 05:26:08;;;;;;;3.97;2.97;;;;;;;7.73;100.00;101098.31;5055440;28;20029;-78
2022/04/11 05:28:54;;;;;;;3.10;2.55;;;;;;;7.83;100.00;101100.03;5054724;28;20167;-78
2022/04/11 05:31:39;;;;;;;3.65;2.70;;;;;;;7.57;100.00;101107.00;5055146;28;20037;-79
2022/04/11 05:34:25;;;;;;;2.50;2.00;;;;;;;7.77;100.00;101097.44;5060064;28;20028;-77
2022/04/11 05:37:12;;;;;;;4.43;2.92;;;;;;;7.88;100.00;101096.56;5060381;28;20021;-78
2022/04/11 05:39:58;;;;;;;4.00;2.20;;;;;;;8.27;100.00;101095.66;5055489;28;20052;-79
2022/04/11 05:42:43;;;;;;;2.50;2.30;;;;;;;7.91;100.00;101101.78;5055992;28;20033;-80
2022/04/11 05:45:29;;;;;;;2.50;2.30;;;;;;;8.05;100.00;101102.66;5054540;28;20021;-76
2022/04/11 05:48:15;;;;;;;2.00;1.80;;;;;;;8.01;100.00;101113.09;5055554;28;20045;-79
2022/04/11 05:51:01;;;;;;;3.33;2.75;;;;;;;8.31;100.00;101107.84;5055174;28;20052;-79
2022/04/11 05:53:46;;;;;;;3.33;1.90;;;;;;;8.03;100.00;101116.56;5054011;28;20056;-79
2022/04/11 05:56:33;;;;;;;2.47;1.77;;;;;;;7.89;100.00;101120.94;5052225;28;20039;-78
2022/04/11 05:59:18;;;;;;;2.75;2.00;;;;;;;8.27;100.00;101119.16;5054911;28;20128;-78
2022/04/11 06:02:05;;;;;;;2.70;2.00;;;;;;;8.42;100.00;101119.16;5054082;28;20028;-78
2022/04/11 06:04:51;;;;;;;2.33;1.90;;;;;;;8.37;100.00;101115.69;5055438;28;20515;-78
2022/04/11 06:07:37;;;;;;;2.13;1.92;;;;;;;8.35;100.00;101118.28;5030283;28;20104;-77
2022/04/11 06:10:22;;;;;;;2.92;2.03;;;;;;;8.72;100.00;101135.59;5038574;28;20512;-77
2022/04/11 06:13:08;;;;;;;1.73;1.50;;;;;;;8.46;100.00;101132.19;5044805;28;20033;-77
2022/04/11 06:15:55;;;;;;;3.35;1.90;;;;;;;8.42;100.00;101126.97;5040245;28;20388;-77
2022/04/11 06:18:41;;;;;;;2.60;1.90;;;;;;;8.66;100.00;101132.13;5043753;28;20025;-78
2022/04/11 06:21:27;;;;;;;18.17;5.10;;;;;;;8.70;100.00;101128.63;5042359;28;20043;-76
2022/04/11 06:24:13;;;;;;;3.08;2.13;;;;;;;8.79;100.00;101125.97;5034278;28;20043;-76
2022/04/11 06:26:58;;;;;;;6.40;2.00;;;;;;;9.15;100.00;101126.69;5033857;28;20030;-77
2022/04/11 06:29:44;;;;;;;5.43;2.20;;;;;;;8.83;100.00;101123.38;5028601;28;20024;-78
2022/04/11 06:32:32;;;;;;;2.85;2.00;;;;;;;9.24;100.00;101131.88;5036097;28;20033;-77
2022/04/11 06:35:18;;;;;;;4.72;1.95;;;;;;;9.31;100.00;101140.53;5030452;28;20032;-79
2022/04/11 06:38:04;;;;;;;5.28;2.08;;;;;;;9.22;100.00;101136.25;5041293;28;20377;-78
2022/04/11 06:40:49;;;;;;;4.55;2.10;;;;;;;9.45;100.00;101136.13;5032479;28;20041;-77
2022/04/11 06:43:35;;;;;;;16.48;9.25;;;;;;;9.49;100.00;101140.44;5044039;28;20412;-76
2022/04/11 06:46:21;;;;;;;4.28;2.45;;;;;;;9.63;100.00;101138.59;5037711;28;20057;-77
2022/04/11 06:49:07;;;;;;;2.38;1.75;;;;;;;9.52;100.00;101143.91;5035326;28;20116;-77
2022/04/11 06:51:54;;;;;;;1.48;1.27;;;;;;;9.57;100.00;101139.50;5042409;28;20441;-77
2022/04/11 06:54:40;;;;;;;2.15;1.58;;;;;;;9.73;100.00;101143.75;5030721;28;20025;-77
2022/04/11 06:57:26;;;;;;;3.15;1.92;;;;;;;9.39;100.00;101149.22;5026676;28;20029;-76
2022/04/11 07:00:12;;;;;;;2.35;1.95;;;;;;;9.55;100.00;101150.88;5043208;28;20071;-76
2022/04/11 07:02:58;;;;;;;3.45;2.22;;;;;;;10.04;100.00;101154.84;5026451;28;20059;-76
2022/04/11 07:05:43;;;;;;;2.13;1.92;;;;;;;10.05;100.00;101157.50;5027355;28;20033;-76
2022/04/11 07:08:29;;;;;;;2.63;1.90;;;;;;;9.82;100.00;101162.00;5018701;28;20631;-75
2022/04/11 07:11:15;;;;;;;2.70;2.10;;;;;;;9.96;100.00;101159.28;5035229;28;20416;-75
2022/04/11 07:14:01;;;;;;;3.05;2.33;;;;;;;10.02;100.00;101172.31;5041257;28;20053;-76
2022/04/11 07:16:48;;;;;;;2.47;1.83;;;;;;;10.20;100.00;101174.81;5031978;28;20037;-77
2022/04/11 07:19:34;;;;;;;2.90;2.03;;;;;;;9.96;100.00;101167.13;5034244;28;20042;-76
2022/04/11 07:22:23;;;;;;;2.45;2.00;;;;;;;10.18;100.00;101165.25;5025948;28;20087;-75
2022/04/11 07:25:10;;;;;;;2.95;2.20;;;;;;;10.25;100.00;101172.16;5034795;28;20037;-75
2022/04/11 07:27:56;;;;;;;2.55;2.05;;;;;;;9.94;100.00;101174.13;5035016;28;20041;-76
2022/04/11 07:30:42;;;;;;;4.45;3.28;;;;;;;10.16;100.00;101178.34;5032116;28;20415;-76
2022/04/11 07:33:27;;;;;;;3.88;2.60;;;;;;;10.22;100.00;101167.84;5039323;28;20136;-76
2022/04/11 07:36:13;;;;;;;2.72;2.30;;;;;;;10.52;100.00;101171.91;5044778;28;20456;-76
2022/04/11 07:38:59;;;;;;;3.50;3.20;;;;;;;11.23;100.00;101177.19;5030155;28;20030;-76
2022/04/11 07:41:45;;;;;;;2.65;2.30;;;;;;;11.30;100.00;101182.34;5039244;28;20044;-76
2022/04/11 07:44:30;;;;;;;2.30;2.05;;;;;;;11.15;100.00;101189.53;5032588;28;20098;-75
2022/04/11 07:47:16;;;;;;;3.42;3.13;;;;;;;11.09;100.00;101190.47;5030243;28;20057;-75
2022/04/11 07:50:03;;;;;;;2.50;2.00;;;;;;;10.83;100.00;101182.06;5054660;28;20048;-74
2022/04/11 07:52:48;;;;;;;2.30;2.10;;;;;;;11.38;100.00;101192.75;5046495;28;20036;-75
2022/04/11 07:55:34;;;;;;;2.38;2.10;;;;;;;11.15;100.00;101198.28;5048209;28;20242;-76
2022/04/11 07:58:20;;;;;;;2.58;1.80;;;;;;;10.91;100.00;101188.06;5040753;28;20036;-75
2022/04/11 08:01:06;;;;;;;2.08;1.75;;;;;;;10.49;100.00;101193.75;5033673;28;20385;-75
2022/04/11 08:03:51;;;;;;;2.00;1.80;;;;;;;10.89;100.00;101188.97;5036914;28;20029;-76
2022/04/11 08:06:37;;;;;;;2.00;1.80;;;;;;;10.46;100.00;101191.19;5045021;28;20041;-75
2022/04/11 08:09:23;;;;;;;2.42;1.80;;;;;;;10.44;100.00;101195.53;5043986;28;20032;-76
2022/04/11 08:12:09;;;;;;;1.88;1.75;;;;;;;10.53;100.00;101187.59;5033695;28;20465;-76
2022/04/11 08:14:55;;;;;;;2.67;1.75;;;;;;;11.16;100.00;101196.50;5042165;28;20036;-76
2022/04/11 08:17:41;;;;;;;2.13;1.92;;;;;;;10.64;100.00;101196.22;5036395;28;20021;-75
2022/04/11 08:20:28;;;;;;;4.70;2.67;;;;;;;10.68;100.00;101186.59;5033048;28;20117;-77
2022/04/11 08:23:13;;;;;;;3.03;2.70;;;;;;;11.07;100.00;101196.63;5036928;28;20100;-76
2022/04/11 08:25:59;;;;;;;2.63;2.15;;;;;;;10.69;100.00;101194.41;5048204;28;20565;-76
2022/04/11 08:28:45;;;;;;;4.13;2.70;;;;;;;10.63;100.00;101204.09;5032416;28;20044;-75
2022/04/11 08:31:31;;;;;;;2.50;2.30;;;;;;;10.54;100.00;101204.19;5044022;28;20454;-76
2022/04/11 08:34:16;;;;;;;3.97;2.70;;;;;;;11.09;100.00;101205.34;5033384;28;20411;-76
2022/04/11 08:37:02;;;;;;;6.63;2.42;;;;;;;11.00;100.00;101202.81;5036955;28;20033;-75
2022/04/11 08:39:48;;;;;;;3.08;2.78;;;;;;;10.86;100.00;101204.72;5040692;28;20032;-78
2022/04/11 08:42:34;;;;;;;4.00;3.10;;;;;;;10.67;100.00;101206.69;5046102;28;20037;-78
2022/04/11 08:45:22;;;;;;;7.18;3.20;;;;;;;11.10;100.00;101212.31;5040210;28;20027;-78
2022/04/11 08:48:09;;;;;;;3.67;3.22;;;;;;;11.54;100.00;101207.38;5034158;28;20385;-78
2022/04/11 08:50:55;;;;;;;4.03;3.63;;;;;;;11.43;100.00;101211.91;5040507;28;20421;-77
2022/04/11 08:53:43;;;;;;;3.30;3.00;;;;;;;11.40;100.00;101222.44;5037612;28;20028;-79
2022/04/11 08:56:29;;;;;;;3.88;3.58;;;;;;;11.76;100.00;101217.59;5041503;28;20520;-78
2022/04/11 08:59:15;;;;;;;5.15;3.53;;;;;;;12.05;100.00;101222.44;5037995;28;20045;-79
2022/04/11 09:02:01;;;;;;;4.43;3.80;;;;;;;11.78;100.00;101223.66;5036609;28;20029;-78
2022/04/11 09:04:51;;;;;;;5.07;4.57;;;;;;;12.08;100.00;101220.59;5038036;28;20033;-78
2022/04/11 09:07:45;;;;;;;4.45;4.05;;;;;;;12.27;100.00;101218.56;5048285;28;20555;-79
2022/04/11 09:10:37;;;;;;;6.47;4.60;;;;;;;11.53;100.00;101222.25;5046712;28;20037;-78
2022/04/11 09:13:23;;;;;;;5.45;4.40;;;;;;;11.34;100.00;101227.75;5039543;28;20049;-78
2022/04/11 09:16:09;;;;;;;6.45;4.50;;;;;;;11.34;100.00;101226.03;5035485;28;20116;-78
2022/04/11 09:18:55;;;;;;;5.80;5.00;;;;;;;11.61;100.00;101233.53;5040991;28;20462;-80
2022/04/11 09:21:44;;;;;;;5.15;4.65;;;;;;;11.40;100.00;101231.19;5040700;28;20036;-79
2022/04/11 09:24:31;;;;;;;5.03;4.53;;;;;;;11.37;100.00;101233.81;5033447;28;20033;-79
2022/04/11 09:27:24;;;;;;;4.72;4.32;;;;;;;11.55;100.00;101228.38;5031437;28;20040;-77
2022/04/11 09:30:19;;;;;;;5.15;4.60;;;;;;;11.60;100.00;101234.44;5028770;28;20117;-77
2022/04/11 09:33:10;;;;;;;5.68;5.07;;;;;;;11.26;100.00;101234.84;5036542;28;20072;-78
2022/04/11 09:35:55;;;;;;;5.95;5.35;;;;;;;11.85;100.00;101227.94;5038093;28;20030;-78
2022/04/11 09:38:41;;;;;;;6.82;5.00;;;;;;;11.85;100.00;101216.59;5032578;28;20056;-77
2022/04/11 09:41:34;;;;;;;6.07;5.47;;;;;;;12.12;100.00;101229.28;5045353;28;20066;-77
2022/04/11 09:44:28;;;;;;;4.88;4.43;;;;;;;11.99;100.00;101220.75;5038577;28;20021;-77
2022/04/11 09:47:14;;;;;;;6.10;4.45;;;;;;;12.33;100.00;101223.69;5037001;28;20397;-78
2022/04/11 09:50:00;;;;;;;6.03;4.53;;;;;;;12.74;100.00;101216.81;5036653;28;20044;-78
2022/04/11 09:52:46;;;;;;;5.32;4.82;;;;;;;12.49;100.00;101218.16;5032258;28;20095;-79
2022/04/11 09:55:34;;;;;;;7.20;5.10;;;;;;;12.69;100.00;101223.94;5025243;28;20180;-77
2022/04/11 09:58:22;;;;;;;8.13;5.15;;;;;;;13.28;100.00;101217.56;5025722;28;20339;-79
2022/04/11 10:01:08;;;;;;;4.95;4.20;;;;;;;13.72;100.00;101221.00;5036390;28;20428;-78
2022/04/11 10:03:54;;;;;;;5.53;5.00;;;;;;;13.90;100.00;101222.31;5025955;28;20029;-79
2022/04/11 10:06:40;;;;;;;5.38;4.00;;;;;;;13.70;100.00;101220.13;5029329;28;20033;-78
2022/04/11 10:09:26;;;;;;;5.88;4.00;;;;;;;13.69;100.00;101220.19;5041083;28;20047;-78
2022/04/11 10:12:12;;;;;;;4.22;3.80;;;;;;;13.68;100.00;101221.97;5039603;28;20021;-78
2022/04/11 10:14:58;;;;;;;5.75;3.65;;;;;;;13.31;100.00;101220.13;5056407;28;20063;-77
2022/04/11 10:17:44;;;;;;;5.75;4.10;;;;;;;13.85;100.00;101224.19;5046640;28;20033;-79
2022/04/11 10:20:35;;;;;;;9.35;6.68;;;;;;;13.89;100.00;101218.84;5031206;28;20041;-78
2022/04/11 10:23:31;;;;;;;17.75;12.07;;;;;;;14.47;100.00;101213.91;5030918;28;20132;-78
2022/04/11 10:26:18;;;;;;;3.97;2.97;;;;;;;14.43;97.73;101216.69;5044131;28;20037;-77
2022/04/11 10:29:04;;;;;;;3.40;3.10;;;;;;;14.27;93.61;101212.69;5030070;28;20033;-78
2022/04/11 10:32:05;;;;;;;3.22;2.90;;;;;;;13.98;88.59;101210.72;5041313;28;20029;-78
2022/04/11 10:34:55;;;;;;;3.90;2.70;;;;;;;14.36;85.99;101208.03;5032687;28;20025;-79
2022/04/11 10:37:41;;;;;;;4.55;2.78;;;;;;;14.05;97.34;101208.78;5045637;28;20025;-79
2022/04/11 10:40:28;;;;;;;3.53;2.78;;;;;;;14.15;92.79;101203.25;5038590;28;20152;-78
2022/04/11 10:43:16;;;;;;;3.05;2.75;;;;;;;14.00;93.33;101197.50;5029270;28;20033;-79
2022/04/11 10:46:03;;;;;;;3.13;2.83;;;;;;;14.12;96.01;101200.69;5028114;28;20033;-79
2022/04/11 10:49:05;;;;;;;4.10;2.92;;;;;;;14.47;97.50;101197.25;5044363;28;20029;-78
2022/04/11 10:52:29;;;;;;;3.35;3.05;;;;;;;14.21;98.16;101199.66;5026363;28;20276;-78
2022/04/11 10:55:20;;;;;;;3.92;3.33;;;;;;;13.92;93.45;101200.34;5030917;28;20021;-78
2022/04/11 10:58:21;;;;;;;4.72;3.00;;;;;;;14.17;88.81;101197.97;5026373;28;20465;-77
2022/04/11 11:01:08;;;;;;;5.80;2.83;;;;;;;14.51;90.69;101194.47;5038446;28;20033;-78
2022/04/11 11:04:15;;;;;;;4.15;2.80;;;;;;;14.16;93.03;101209.41;5034905;28;20024;-78
2022/04/11 11:07:26;;;;;;;3.15;2.70;;;;;;;14.39;82.77;101207.13;5039521;28;20041;-76
2022/04/11 11:10:14;;;;;;;8.85;2.63;;;;;;;13.75;87.17;101209.53;5028319;28;20067;-74
2022/04/11 11:13:37;;;;;;;6.38;2.47;;;;;;;13.55;87.81;101209.94;5027066;28;20038;-76
2022/04/11 11:16:23;;;;;;;3.92;2.70;;;;;;;13.86;85.66;101218.03;5033458;28;20035;-72
2022/04/11 11:19:12;;;;;;;9.00;6.05;;;;;;;13.94;86.43;101219.59;5038840;28;20037;-79
2022/04/11 11:21:59;;;;;;;4.85;2.80;;;;;;;13.95;85.16;101226.59;5036836;28;20043;-78
2022/04/11 11:25:18;;;;;;;4.82;2.88;;;;;;;13.75;86.28;101239.34;5031057;28;20346;-79
2022/04/11 11:28:05;;;;;;;8.52;3.00;;;;;;;13.12;84.82;101238.06;5043253;28;20033;-79
2022/04/11 11:30:51;;;;;;;7.00;2.63;;;;;;;12.09;96.17;101237.25;5031758;28;20051;-77
2022/04/11 11:33:37;;;;;;;9.00;3.28;;;;;;;12.48;100.00;101229.56;5028196;28;20484;-75
2022/04/11 11:36:29;;;;;;;4.05;2.75;;;;;;;12.47;100.00;101227.84;5034746;28;20029;-74
2022/04/11 11:39:24;;;;;;;6.57;2.70;;;;;;;12.32;98.54;101224.59;5043352;28;20400;-77
2022/04/11 11:42:14;;;;;;;7.22;2.70;;;;;;;12.80;99.03;101216.72;5032367;28;20029;-79
2022/04/11 11:45:00;;;;;;;6.32;3.00;;;;;;;13.35;95.45;101214.75;5035394;28;20033;-77
2022/04/11 11:47:51;;;;;;;7.10;3.33;;;;;;;12.40;100.00;101207.81;5044526;28;20057;-77
2022/04/11 11:50:37;;;;;;;8.93;3.70;;;;;;;12.43;100.00;101212.16;5042443;28;20142;-78
2022/04/11 11:53:24;;;;;;;7.25;4.43;;;;;;;12.01;100.00;101224.22;5034848;28;20029;-78
2022/04/11 11:56:10;;;;;;;7.10;3.90;;;;;;;11.81;100.00;101205.25;5046296;28;20034;-78
2022/04/11 11:59:00;;;;;;;11.25;3.92;;;;;;;11.34;100.00;101217.28;5037507;28;20030;-76
2022/04/11 12:04:58;;;;;;;10.50;4.53;;;;;;;10.48;100.00;101241.78;5026035;28;20464;-77
2022/04/11 12:07:46;;;;;;;11.60;4.03;;;;;;;10.94;100.00;101216.88;5037743;28;20379;-76
2022/04/11 12:10:32;;;;;;;13.90;4.65;;;;;;;11.24;100.00;101231.38;5032669;28;20465;-78
2022/04/11 12:13:26;;;;;;;11.05;4.60;;;;;;;11.72;100.00;101218.53;5031702;28;20460;-77
2022/04/11 12:16:17;;;;;;;11.98;5.32;;;;;;;12.03;100.00;101221.56;5037868;28;20480;-77
2022/04/11 12:19:05;;;;;;;8.32;3.88;;;;;;;12.82;100.00;101212.28;5044924;28;20034;-76
2022/04/11 12:21:51;;;;;;;11.45;4.50;;;;;;;12.60;100.00;101204.84;5045289;28;20031;-77
2022/04/11 12:24:37;;;;;;;7.93;4.00;;;;;;;12.78;100.00;101196.63;5042953;28;20029;-76
2022/04/11 12:27:24;;;;;;;14.50;4.50;;;;;;;12.79;100.00;101196.59;5045356;28;20108;-76
2022/04/11 12:30:12;;;;;;;7.57;4.57;;;;;;;12.26;100.00;101188.78;5041201;28;20056;-76
2022/04/11 12:32:58;;;;;;;9.05;4.88;;;;;;;12.91;100.00;101183.19;5032755;28;20108;-76
2022/04/11 12:35:44;;;;;;;12.32;4.05;;;;;;;13.78;100.00;101188.34;5042946;28;20023;-76
2022/04/11 12:38:50;;;;;;;7.65;3.85;;;;;;;13.98;95.19;101191.41;5034777;28;20369;-76
2022/04/11 12:41:44;;;;;;;6.50;3.65;;;;;;;14.07;90.93;101197.31;5034166;28;20036;-75
2022/04/11 12:44:34;;;;;;;6.70;3.00;;;;;;;13.72;84.90;101202.56;5037845;28;20421;-76
2022/04/11 12:47:20;;;;;;;7.13;4.40;;;;;;;13.42;84.57;101194.47;5047379;28;20063;-74
2022/04/11 12:50:06;;;;;;;11.15;2.95;;;;;;;13.57;84.58;101196.75;5034774;28;20041;-75
2022/04/11 12:52:52;;;;;;;10.98;4.00;;;;;;;13.22;86.66;101196.66;5040714;28;20025;-75
2022/04/11 12:55:38;;;;;;;6.65;3.05;;;;;;;13.04;86.21;101208.41;5035254;28;20025;-76
2022/04/11 12:58:23;;;;;;;9.93;3.00;;;;;;;13.04;89.54;101197.88;5037126;28;20112;-77